EDDB/SXF METAR and TAF weather

Enter ICAO airport designator
Station Type Date Time Source
EDDB METAR 2022/12/10 01:20 UTC NOAA

EDDB 100120Z AUTO 03005KT 9999 FEW004 OVC032 M02/M03 Q1008 NOSIG


Station Type Date Time Source
EDDB Decoded METAR 2022/12/10 01:20 UTC NOAA

Berlin-Schoenefeld, Germany (EDDB) 52-23N 013-31E 50M
Dec 09, 2022 - 08:20 PM EST / 2022.12.10 0120 UTC
Wind: from the NNE (030 degrees) at 6 MPH (5 KT):0
Visibility: greater than 7 mile(s):0
Sky conditions: overcast
Temperature: 28 F (-2 C)
Windchill: 21 F (-6 C):1
Dew Point: 26 F (-3 C)
Relative Humidity: 92%
Pressure (altimeter): 29.77 in. Hg (1008 hPa)
ob: EDDB 100120Z AUTO 03005KT 9999 FEW004 OVC032 M02/M03 Q1008 NOSIG
cycle: 1

Station Type Date Time Source
EDDB TAF 2022/12/09 18:27 UTC NOAA

TAF TAF EDDB 091700Z 0918/1018 04006KT 8000 OVC003 PROB30
TEMPO 0918/1006 4000 BR BKN005
BECMG 1006/1009 BKN010
BECMG 1010/1014 BKN020

Example: see airport list